createdAt,value
2019-03-22T09:47:24.101Z,1016.87
2019-03-22T09:53:24.096Z,1016.87
2019-03-22T09:59:24.170Z,1016.76
2019-03-22T10:05:24.205Z,1016.75
2019-03-22T10:11:24.131Z,1016.73
2019-03-22T10:17:24.161Z,1016.59
2019-03-22T10:23:24.083Z,1016.57
2019-03-22T10:29:24.177Z,1016.52
2019-03-22T10:35:26.286Z,1016.60
2019-03-22T10:41:24.109Z,1016.55
2019-03-22T10:47:24.144Z,1016.47
2019-03-22T10:53:24.120Z,1016.45
2019-03-22T10:59:24.240Z,1016.37
2019-03-22T11:05:24.128Z,1016.36
2019-03-22T11:11:24.224Z,1016.41
2019-03-22T11:17:24.140Z,1016.33
2019-03-22T11:23:24.122Z,1016.34
2019-03-22T11:29:24.174Z,1016.33
2019-03-22T11:35:24.173Z,1016.22
2019-03-22T11:41:24.169Z,1016.15
2019-03-22T11:47:24.164Z,1016.26
2019-03-22T11:53:24.168Z,1016.21
2019-03-22T11:59:24.177Z,1016.15
2019-03-22T12:05:24.188Z,1016.08
2019-03-22T12:11:24.183Z,1016.07
2019-03-22T12:17:24.178Z,1015.95
2019-03-22T12:23:24.218Z,1015.96
2019-03-22T12:29:24.219Z,1015.90
2019-03-22T12:35:24.184Z,1015.79
2019-03-22T12:41:24.188Z,1015.79
2019-03-22T12:47:24.240Z,1015.71
2019-03-22T12:53:24.345Z,1015.55
2019-03-22T12:59:24.214Z,1015.60
2019-03-22T13:05:24.214Z,1015.50
2019-03-22T13:11:24.205Z,1015.41
2019-03-22T13:17:24.208Z,1015.32
2019-03-22T13:23:24.263Z,1015.18
2019-03-22T13:29:24.227Z,1015.20
2019-03-22T13:35:24.237Z,1015.14
2019-03-22T13:41:24.239Z,1015.01
2019-03-22T13:47:24.270Z,1014.90
2019-03-22T13:53:24.250Z,1014.90
2019-03-22T13:59:24.247Z,1014.87
2019-03-22T14:05:24.259Z,1014.79
2019-03-22T14:11:24.357Z,1014.77
2019-03-22T14:17:24.284Z,1014.68
2019-03-22T14:23:24.277Z,1014.57
2019-03-22T14:29:24.263Z,1014.54
2019-03-22T14:35:24.295Z,1014.55
2019-03-22T14:41:24.318Z,1014.49
2019-03-22T14:47:24.329Z,1014.38
2019-03-22T14:53:24.475Z,1014.25
2019-03-22T14:59:24.337Z,1014.33
2019-03-22T15:05:24.323Z,1014.21
2019-03-22T15:11:24.302Z,1014.13
2019-03-22T15:17:24.312Z,1014.16
2019-03-22T15:23:24.426Z,1013.99
2019-03-22T15:29:24.328Z,1013.98
2019-03-22T15:41:24.387Z,1013.83
2019-03-22T15:47:24.328Z,1013.75
2019-03-22T15:53:24.374Z,1013.77
2019-03-22T15:59:24.359Z,1013.80
2019-03-22T16:05:24.561Z,1013.74
2019-03-22T16:11:24.422Z,1013.86
2019-03-22T16:17:24.368Z,1013.81
2019-03-22T16:23:24.367Z,1013.74
2019-03-22T16:29:24.397Z,1013.73
2019-03-22T16:35:24.463Z,1013.82
2019-03-22T16:41:24.375Z,1013.89
2019-03-22T16:47:24.392Z,1013.88
2019-03-22T16:53:24.473Z,1013.86
2019-03-22T16:59:24.389Z,1013.87
2019-03-22T17:05:24.460Z,1013.83
2019-03-22T17:11:24.401Z,1013.84
2019-03-22T17:17:24.417Z,1013.83
2019-03-22T17:23:24.484Z,1013.83
2019-03-22T17:29:24.423Z,1013.89
2019-03-22T17:35:24.461Z,1013.93
2019-03-22T17:41:24.411Z,1013.95
2019-03-22T17:47:24.433Z,1013.92
2019-03-22T17:53:24.527Z,1014.04
2019-03-22T17:59:24.460Z,1013.98
2019-03-22T18:05:24.652Z,1014.02
2019-03-22T18:11:24.529Z,1014.02
2019-03-22T18:17:24.456Z,1014.01
2019-03-22T18:23:24.524Z,1014.09
2019-03-22T18:29:24.447Z,1014.12
2019-03-22T18:35:24.518Z,1014.10
2019-03-22T18:41:24.472Z,1014.05
2019-03-22T18:47:24.490Z,1014.09
2019-03-22T18:53:24.485Z,1014.10
2019-03-22T18:59:24.491Z,1014.11
2019-03-22T19:05:24.512Z,1014.13
2019-03-22T19:11:24.493Z,1014.14
2019-03-22T19:17:24.486Z,1014.15
2019-03-22T19:23:24.514Z,1014.12
2019-03-22T19:29:24.554Z,1014.16
2019-03-22T19:35:24.493Z,1014.24
2019-03-22T19:41:24.545Z,1014.16
2019-03-22T19:47:24.596Z,1014.26
2019-03-22T19:53:24.638Z,1014.31
2019-03-22T19:59:24.537Z,1014.41
2019-03-22T20:05:24.622Z,1014.42
2019-03-22T20:11:24.691Z,1014.37
2019-03-22T20:17:24.542Z,1014.38
2019-03-22T20:23:24.639Z,1014.30
2019-03-22T20:29:24.573Z,1014.34
2019-03-22T20:35:24.560Z,1014.40
2019-03-22T20:41:24.563Z,1014.37
2019-03-22T20:47:24.582Z,1014.40
2019-03-22T20:53:24.647Z,1014.25
2019-03-22T20:59:24.709Z,1014.33
2019-03-22T21:05:27.165Z,1014.26
2019-03-22T21:11:24.602Z,1014.34
2019-03-22T21:17:24.618Z,1014.27
2019-03-22T21:23:24.637Z,1014.22
2019-03-22T21:29:24.593Z,1014.31
2019-03-22T21:35:24.631Z,1014.32
2019-03-22T21:41:24.604Z,1014.39
2019-03-22T21:47:24.616Z,1014.34
2019-03-22T21:53:24.604Z,1014.36
2019-03-22T21:59:24.690Z,1014.30
2019-03-22T22:05:24.629Z,1014.24
2019-03-22T22:11:24.639Z,1014.32
2019-03-22T22:17:24.736Z,1014.19
2019-03-22T22:23:24.723Z,1014.13
2019-03-22T22:29:24.674Z,1014.16
2019-03-22T22:35:24.641Z,1014.16
2019-03-22T22:41:24.647Z,1014.15
2019-03-22T22:47:24.662Z,1014.08
2019-03-22T22:53:24.778Z,1014.09
2019-03-22T22:59:24.670Z,1014.10
2019-03-22T23:05:24.696Z,1014.06
2019-03-22T23:11:24.912Z,1014.05
2019-03-22T23:17:24.762Z,1014.12
2019-03-22T23:23:24.705Z,1014.19
2019-03-22T23:29:24.727Z,1014.20
2019-03-22T23:35:24.686Z,1014.23
2019-03-22T23:41:24.819Z,1014.21
2019-03-22T23:47:24.746Z,1014.35
2019-03-22T23:53:24.699Z,1014.34
2019-03-22T23:59:24.711Z,1014.32
